Puerto Maldonado, Peru
Current Conditions -  °F | °C
As of 5:00 AM on Monday 20 Oct 2014 (Local Time) from SPZO Reporting Station
Scattered Clouds Scattered Clouds  
Wind Chill: 46°   Ceiling: Unl
Heat Index: 46°   Visibility: 6mi
Dew Point: 39°   Wind: 3mph
Humidity: 76%   Direction: 80°E
Pressure: 30.48"   Gusts: NA
Location:  12.6°S, 69.2°W
Report Text: SPZO 201000Z 08003KT 9999 SCT040 SCT080 08/04 Q1032 RMK PP000
Loading
Personal Weather Stations






























Interactive Weather Map
Tropical Storm Tracking
New forecast layout! Learn more

10-Day Weather Forecast

Advertisements
Track Severe Weather on mobile